Time;durP1;ratioP1;P1;durP2;ratioP2;P2;SDS_P1;SDS_P2;PMS_P1;PMS_P2;Temp;Humidity;BMP_temperature;BMP_pressure;BME280_temperature;BME280_humidity;BME280_pressure;Samples;Min_cycle;Max_cycle;Signal;HPM_P1;HPM_P2
2022/05/31 00:00:30;;;;;;;9.73;8.43;;;8.30;99.90;;;;;;4973403;28;20937;-51
2022/05/31 00:02:58;;;;;;;9.17;7.83;;;8.20;99.90;;;;;;4971948;28;20440;-56
2022/05/31 00:05:24;;;;;;;7.93;7.13;;;8.20;99.90;;;;;;4973209;28;20444;-53
2022/05/31 00:07:49;;;;;;;8.73;7.93;;;8.20;99.90;;;;;;4971870;28;20516;-54
2022/05/31 00:10:15;;;;;;;7.67;6.87;;;8.10;99.90;;;;;;4971765;28;20515;-55
2022/05/31 00:12:41;;;;;;;8.60;7.80;;;8.10;99.90;;;;;;4969516;28;20657;-54
2022/05/31 00:15:09;;;;;;;9.67;8.47;;;8.10;99.90;;;;;;4973560;28;20181;-52
2022/05/31 00:17:35;;;;;;;9.17;8.23;;;8.00;99.90;;;;;;4966909;28;20436;-52
2022/05/31 00:20:01;;;;;;;8.43;7.63;;;8.00;99.90;;;;;;4972851;28;20446;-54
2022/05/31 00:22:27;;;;;;;8.60;7.80;;;8.00;99.90;;;;;;4975891;28;20889;-56
2022/05/31 00:24:53;;;;;;;8.60;7.80;;;8.00;99.90;;;;;;4970766;28;20947;-57
2022/05/31 00:27:22;;;;;;;8.50;7.60;;;8.00;99.90;;;;;;4973271;28;20452;-54
2022/05/31 00:29:47;;;;;;;8.93;8.03;;;8.00;99.90;;;;;;4967492;28;20444;-55
2022/05/31 00:32:21;;;;;;;8.50;7.70;;;7.90;99.90;;;;;;4971822;28;20459;-53
2022/05/31 00:34:48;;;;;;;9.07;8.10;;;7.90;99.90;;;;;;4974526;28;20204;-55
2022/05/31 00:37:14;;;;;;;9.70;8.63;;;7.80;99.90;;;;;;4973208;28;21113;-53
2022/05/31 00:39:40;;;;;;;8.87;7.97;;;7.70;99.90;;;;;;4967195;28;20432;-53
2022/05/31 00:42:17;;;;;;;8.00;7.20;;;7.70;99.90;;;;;;4968396;28;20429;-53
2022/05/31 00:44:43;;;;;;;8.10;7.30;;;7.70;99.90;;;;;;5002719;28;20887;-55
2022/05/31 00:47:23;;;;;;;9.33;8.33;;;7.70;99.90;;;;;;4964994;28;20519;-55
2022/05/31 00:49:57;;;;;;;7.90;7.10;;;7.70;99.90;;;;;;4972499;28;20493;-53
2022/05/31 00:52:58;;;;;;;8.63;7.73;;;7.70;99.90;;;;;;4968966;28;20451;-54
2022/05/31 00:55:42;;;;;;;9.00;8.10;;;7.60;99.90;;;;;;4970650;28;20477;-55
2022/05/31 00:58:42;;;;;;;9.07;8.17;;;7.50;99.90;;;;;;4961171;28;20467;-56
2022/05/31 01:01:12;;;;;;;8.70;7.77;;;7.40;99.90;;;;;;4969058;28;20971;-56
2022/05/31 01:03:41;;;;;;;9.30;8.40;;;7.40;99.90;;;;;;4971124;28;20431;-54
2022/05/31 01:06:07;;;;;;;8.93;7.80;;;7.30;99.90;;;;;;4985399;28;20797;-54
2022/05/31 01:08:36;;;;;;;9.65;8.65;;;7.20;99.90;;;;;;4972161;28;20475;-55
2022/05/31 01:11:02;;;;;;;10.13;8.97;;;7.20;99.90;;;;;;4971026;28;20201;-53
2022/05/31 01:13:28;;;;;;;9.63;8.65;;;7.10;99.90;;;;;;4970334;28;21011;-53
2022/05/31 01:16:06;;;;;;;12.03;8.33;;;7.10;99.90;;;;;;4970744;28;20240;-50
2022/05/31 01:18:32;;;;;;;8.63;7.20;;;7.10;99.90;;;;;;4968908;28;20440;-56
2022/05/31 01:21:00;;;;;;;8.93;8.03;;;7.10;99.90;;;;;;4974088;28;20592;-53
2022/05/31 01:23:30;;;;;;;10.15;9.00;;;7.10;99.90;;;;;;4967592;28;20447;-56
2022/05/31 01:26:29;;;;;;;12.40;9.30;;;7.10;99.90;;;;;;4970380;28;20272;-55
2022/05/31 01:28:59;;;;;;;15.75;8.85;;;7.20;99.90;;;;;;4963482;28;20440;-54
2022/05/31 01:31:37;;;;;;;30.58;10.30;;;7.10;99.90;;;;;;4963513;28;20216;-53
2022/05/31 01:34:15;;;;;;;21.97;10.30;;;7.10;99.90;;;;;;4970437;28;20311;-54
2022/05/31 01:36:48;;;;;;;15.73;8.93;;;7.10;99.90;;;;;;4960683;28;20488;-55
2022/05/31 01:39:30;;;;;;;25.60;9.43;;;7.10;99.90;;;;;;4966455;28;20615;-53
2022/05/31 01:42:31;;;;;;;21.05;9.77;;;7.10;99.90;;;;;;4958098;28;20531;-53
2022/05/31 01:45:10;;;;;;;19.80;10.20;;;7.10;99.90;;;;;;4963082;28;20239;-53
2022/05/31 01:47:36;;;;;;;15.57;9.05;;;7.10;99.90;;;;;;4963469;28;20966;-55
2022/05/31 01:50:05;;;;;;;10.60;9.33;;;7.10;99.90;;;;;;4967573;28;20195;-51
2022/05/31 01:52:32;;;;;;;19.30;9.90;;;7.10;99.90;;;;;;4968870;28;20444;-55
2022/05/31 01:54:58;;;;;;;16.10;10.00;;;7.20;99.90;;;;;;4968188;28;20951;-54
2022/05/31 01:57:25;;;;;;;19.00;9.00;;;7.20;99.90;;;;;;4965443;28;20478;-52
2022/05/31 02:00:00;;;;;;;23.47;9.40;;;7.20;99.90;;;;;;4970244;28;20458;-55
2022/05/31 02:02:26;;;;;;;25.17;10.40;;;7.20;99.90;;;;;;4969211;28;20446;-54
2022/05/31 02:04:52;;;;;;;44.70;11.67;;;7.30;99.90;;;;;;4969837;28;21026;-54
2022/05/31 02:07:22;;;;;;;20.40;9.33;;;7.20;99.90;;;;;;4970236;28;20531;-55
2022/05/31 02:09:50;;;;;;;20.50;9.50;;;7.30;99.90;;;;;;4971008;28;20642;-51
2022/05/31 02:12:18;;;;;;;45.00;12.17;;;7.20;99.90;;;;;;4971235;28;20432;-54
2022/05/31 02:14:44;;;;;;;82.43;14.10;;;7.30;99.90;;;;;;4969401;28;20483;-49
2022/05/31 02:17:10;;;;;;;15.23;10.00;;;7.30;99.90;;;;;;4970089;28;20458;-54
2022/05/31 02:19:36;;;;;;;12.50;9.60;;;7.20;99.90;;;;;;4968808;28;20192;-50
2022/05/31 02:22:06;;;;;;;19.40;9.67;;;7.30;99.90;;;;;;4970041;28;20440;-55
2022/05/31 02:24:32;;;;;;;21.43;10.60;;;7.30;99.90;;;;;;4969340;28;20456;-52
2022/05/31 02:26:58;;;;;;;40.70;11.43;;;7.30;99.90;;;;;;4970887;28;20421;-59
2022/05/31 02:29:31;;;;;;;24.93;10.47;;;7.30;99.90;;;;;;4959587;28;20199;-51
2022/05/31 02:31:58;;;;;;;29.43;10.37;;;7.30;99.90;;;;;;4966255;28;20480;-51
2022/05/31 02:34:26;;;;;;;26.45;10.52;;;7.20;99.90;;;;;;4970918;28;20468;-56
2022/05/31 02:36:52;;;;;;;19.57;10.83;;;7.20;99.90;;;;;;4968318;28;20428;-49
2022/05/31 02:39:18;;;;;;;32.93;11.43;;;7.20;99.90;;;;;;4977417;28;20451;-53
2022/05/31 02:41:44;;;;;;;24.10;10.07;;;7.20;99.90;;;;;;4973756;28;20621;-54
2022/05/31 02:44:11;;;;;;;34.90;10.40;;;7.20;99.90;;;;;;4967748;28;20436;-55
2022/05/31 02:46:37;;;;;;;29.20;10.43;;;7.30;99.90;;;;;;4955347;28;20436;-51
2022/05/31 02:49:04;;;;;;;41.43;10.73;;;7.20;99.90;;;;;;4963849;28;20272;-55
2022/05/31 02:51:34;;;;;;;40.13;11.23;;;7.10;99.90;;;;;;4954727;28;20449;-58
2022/05/31 02:54:00;;;;;;;14.88;10.45;;;7.10;99.90;;;;;;4969953;28;20216;-52
2022/05/31 02:56:26;;;;;;;31.27;11.17;;;7.10;99.90;;;;;;4968703;28;20291;-54
2022/05/31 02:58:51;;;;;;;22.83;12.07;;;7.10;99.90;;;;;;4969728;28;20439;-54
2022/05/31 03:01:23;;;;;;;16.40;10.97;;;7.20;99.90;;;;;;4969988;28;20177;-56
2022/05/31 03:03:49;;;;;;;18.92;11.40;;;7.20;99.90;;;;;;4951522;29;20224;-58
2022/05/31 03:06:15;;;;;;;16.60;10.93;;;7.20;99.90;;;;;;4965899;28;20288;-55
2022/05/31 03:08:41;;;;;;;17.07;11.10;;;7.20;99.90;;;;;;4974798;28;20880;-54
2022/05/31 03:11:14;;;;;;;22.40;11.53;;;7.10;99.90;;;;;;4965415;28;20181;-53
2022/05/31 03:13:41;;;;;;;14.73;11.03;;;7.20;99.90;;;;;;4970128;28;20468;-52
2022/05/31 03:16:07;;;;;;;18.00;11.40;;;7.30;99.90;;;;;;4963250;28;20433;-53
2022/05/31 03:18:37;;;;;;;17.10;10.80;;;7.30;99.90;;;;;;4961579;28;20440;-55
2022/05/31 03:21:13;;;;;;;16.83;10.70;;;7.40;99.90;;;;;;4970288;28;20514;-53
2022/05/31 03:23:43;;;;;;;14.32;10.63;;;7.40;99.90;;;;;;4964646;28;20449;-54
2022/05/31 03:26:12;;;;;;;20.42;10.82;;;7.40;99.90;;;;;;4967138;28;20193;-57
2022/05/31 03:28:37;;;;;;;30.60;11.23;;;7.40;99.90;;;;;;4970364;28;20193;-55
2022/05/31 03:31:04;;;;;;;30.33;11.67;;;7.30;99.90;;;;;;4968542;28;21309;-55
2022/05/31 03:33:31;;;;;;;13.83;10.33;;;7.30;99.90;;;;;;4967812;28;20740;-55
2022/05/31 03:35:56;;;;;;;15.20;10.63;;;7.30;99.90;;;;;;4970330;28;20416;-56
2022/05/31 03:38:22;;;;;;;12.70;10.47;;;7.30;99.90;;;;;;4967669;28;20500;-53
2022/05/31 03:40:57;;;;;;;14.97;10.57;;;7.40;99.90;;;;;;4955988;28;20724;-55
2022/05/31 03:43:25;;;;;;;24.87;12.00;;;7.40;99.90;;;;;;4981895;28;20192;-55
2022/05/31 03:45:50;;;;;;;18.73;10.33;;;7.40;99.90;;;;;;4963762;28;20467;-57
2022/05/31 03:48:16;;;;;;;13.10;10.63;;;7.40;99.90;;;;;;4970010;28;20441;-59
2022/05/31 03:50:42;;;;;;;12.70;10.27;;;7.50;99.90;;;;;;4968243;28;20711;-57
2022/05/31 03:53:10;;;;;;;13.50;10.87;;;7.50;99.90;;;;;;4967068;28;20476;-56
2022/05/31 03:55:38;;;;;;;12.77;9.57;;;7.40;99.90;;;;;;4968287;28;20807;-56
2022/05/31 03:58:04;;;;;;;12.60;10.67;;;7.50;99.90;;;;;;4968544;28;20459;-54
2022/05/31 04:00:29;;;;;;;11.17;9.80;;;7.40;99.90;;;;;;4967639;28;20409;-56
2022/05/31 04:02:55;;;;;;;10.90;9.60;;;7.40;99.90;;;;;;4969987;28;20991;-53
2022/05/31 04:05:21;;;;;;;12.17;10.07;;;7.40;99.90;;;;;;4971261;28;20274;-53
2022/05/31 04:07:49;;;;;;;11.03;9.60;;;7.50;99.90;;;;;;4969518;28;20336;-50
2022/05/31 04:10:14;;;;;;;12.10;10.20;;;7.40;99.90;;;;;;4964508;28;20476;-53
2022/05/31 04:12:40;;;;;;;11.73;9.13;;;7.40;99.90;;;;;;4968329;28;20935;-54
2022/05/31 04:15:06;;;;;;;13.50;9.47;;;7.40;99.90;;;;;;4962538;28;20217;-56
2022/05/31 04:17:31;;;;;;;13.73;10.87;;;7.40;99.90;;;;;;4970591;28;20194;-55
2022/05/31 04:19:57;;;;;;;11.57;9.90;;;7.50;99.90;;;;;;4949675;28;20435;-52
2022/05/31 04:22:23;;;;;;;11.83;9.33;;;7.50;99.90;;;;;;4952817;28;20220;-54
2022/05/31 04:24:53;;;;;;;13.43;8.90;;;7.50;99.90;;;;;;4959028;28;20263;-53
2022/05/31 04:27:19;;;;;;;12.83;9.30;;;7.60;99.90;;;;;;4950475;28;20444;-56
2022/05/31 04:29:45;;;;;;;11.10;9.43;;;7.60;99.90;;;;;;4961191;28;20424;-56
2022/05/31 04:32:11;;;;;;;11.47;9.23;;;7.70;99.90;;;;;;4946312;28;20476;-51
2022/05/31 04:34:37;;;;;;;9.60;8.53;;;7.80;99.90;;;;;;4950734;28;20232;-54
2022/05/31 04:37:02;;;;;;;10.90;9.03;;;7.80;99.90;;;;;;4949607;28;20516;-52
2022/05/31 04:39:28;;;;;;;10.03;8.90;;;7.80;99.90;;;;;;4946853;28;20189;-54
2022/05/31 04:41:54;;;;;;;9.47;8.47;;;7.80;99.90;;;;;;4950725;28;20200;-56
2022/05/31 04:44:19;;;;;;;9.00;7.93;;;8.00;99.90;;;;;;4946687;28;20201;-52
2022/05/31 04:46:45;;;;;;;9.80;8.80;;;8.00;99.90;;;;;;4961195;28;20611;-59
2022/05/31 04:49:11;;;;;;;10.57;8.57;;;8.00;99.90;;;;;;4966857;28;20195;-57
2022/05/31 04:51:37;;;;;;;9.50;8.43;;;8.10;99.90;;;;;;4972858;28;20201;-52
2022/05/31 04:54:04;;;;;;;9.03;8.03;;;8.20;99.90;;;;;;4962803;28;20989;-52
2022/05/31 04:56:30;;;;;;;8.03;7.23;;;8.40;99.90;;;;;;4972663;28;20876;-54
2022/05/31 04:58:55;;;;;;;8.13;7.33;;;8.40;99.90;;;;;;4971962;28;20491;-53
2022/05/31 05:01:22;;;;;;;8.23;7.43;;;8.40;99.90;;;;;;4980271;28;20981;-53
2022/05/31 05:03:48;;;;;;;8.63;7.83;;;8.50;99.90;;;;;;4973985;28;20193;-52
2022/05/31 05:06:15;;;;;;;7.90;7.00;;;8.50;99.90;;;;;;4971220;28;20864;-52
2022/05/31 05:08:42;;;;;;;8.90;8.00;;;8.70;99.90;;;;;;4972678;28;20196;-56
2022/05/31 05:11:11;;;;;;;8.70;7.80;;;8.50;99.90;;;;;;4972450;28;20451;-56
2022/05/31 05:13:37;;;;;;;7.43;6.73;;;8.40;99.90;;;;;;4970005;28;20515;-55
2022/05/31 05:16:03;;;;;;;8.00;7.20;;;8.50;99.90;;;;;;4971712;28;20461;-56
2022/05/31 05:18:32;;;;;;;8.33;7.53;;;8.50;99.90;;;;;;4962811;28;20469;-54
2022/05/31 05:21:00;;;;;;;7.80;7.00;;;8.50;99.90;;;;;;4972558;28;20461;-55
2022/05/31 05:23:26;;;;;;;8.10;7.30;;;8.60;99.90;;;;;;4982408;28;20549;-56
2022/05/31 05:25:53;;;;;;;8.50;7.60;;;8.60;99.90;;;;;;4972042;28;20536;-56
2022/05/31 05:31:04;;;;;;;8.03;6.80;;;8.80;99.90;;;;;;4971151;28;20601;-51
2022/05/31 05:33:30;;;;;;;7.53;6.73;;;8.90;99.90;;;;;;4970943;28;20941;-56
2022/05/31 05:35:57;;;;;;;7.47;6.77;;;9.00;99.90;;;;;;4970018;28;20464;-50
2022/05/31 05:38:23;;;;;;;7.60;6.90;;;9.10;99.90;;;;;;4972231;28;20420;-52
2022/05/31 05:40:48;;;;;;;7.80;7.10;;;9.10;99.90;;;;;;4964099;28;20441;-51
2022/05/31 05:43:14;;;;;;;8.30;7.50;;;9.10;99.90;;;;;;4952573;29;20425;-53
2022/05/31 05:45:40;;;;;;;8.37;7.33;;;9.10;99.90;;;;;;4975762;28;20189;-50
2022/05/31 05:48:06;;;;;;;8.33;7.53;;;9.20;99.90;;;;;;4978765;28;20731;-51
2022/05/31 05:50:34;;;;;;;8.00;7.20;;;9.10;99.90;;;;;;4976534;28;20193;-53
2022/05/31 05:53:03;;;;;;;8.17;7.27;;;9.20;99.90;;;;;;4968559;28;20447;-55
2022/05/31 05:55:29;;;;;;;7.77;7.00;;;9.10;99.90;;;;;;4971469;28;20467;-53
2022/05/31 05:57:55;;;;;;;7.40;6.70;;;9.10;99.90;;;;;;4967819;28;20913;-52
2022/05/31 06:00:21;;;;;;;7.40;6.70;;;9.20;99.90;;;;;;4965129;28;20188;-50
2022/05/31 06:03:22;;;;;;;7.43;6.73;;;9.20;99.90;;;;;;4971741;28;20189;-48
2022/05/31 06:05:49;;;;;;;8.07;7.37;;;9.30;99.90;;;;;;4982221;28;20479;-51
2022/05/31 06:08:26;;;;;;;7.97;7.17;;;9.20;99.90;;;;;;4970838;28;21149;-51
2022/05/31 06:11:21;;;;;;;7.13;6.43;;;9.50;99.90;;;;;;4960904;28;20441;-50
2022/05/31 06:13:58;;;;;;;7.20;6.50;;;9.70;99.90;;;;;;4971386;28;20574;-51
2022/05/31 06:16:28;;;;;;;7.43;6.80;;;9.50;99.90;;;;;;4970230;28;20444;-52
2022/05/31 06:19:09;;;;;;;8.17;7.33;;;9.70;99.90;;;;;;4959127;28;20420;-53
2022/05/31 06:21:35;;;;;;;7.53;6.80;;;9.90;99.90;;;;;;4969791;28;20443;-53
2022/05/31 06:24:01;;;;;;;6.40;5.80;;;10.20;92.50;;;;;;4970629;28;20416;-51
2022/05/31 06:26:28;;;;;;;7.83;6.87;;;10.30;88.40;;;;;;4968956;28;20190;-53
2022/05/31 06:28:54;;;;;;;7.17;6.47;;;10.50;80.90;;;;;;4970230;28;20459;-53
2022/05/31 06:31:19;;;;;;;6.67;6.07;;;10.60;84.50;;;;;;4969613;28;20448;-51
2022/05/31 06:33:45;;;;;;;7.03;6.43;;;10.90;75.70;;;;;;4970706;28;20216;-49
2022/05/31 06:36:11;;;;;;;6.73;6.13;;;11.00;60.70;;;;;;4970160;28;20192;-52
2022/05/31 06:38:36;;;;;;;6.37;5.83;;;11.20;27.00;;;;;;4956926;28;20197;-50
2022/05/31 06:41:02;;;;;;;6.40;5.80;;;11.30;29.80;;;;;;4969887;28;20195;-50
2022/05/31 06:43:28;;;;;;;6.43;5.83;;;11.40;30.00;;;;;;4968722;28;20197;-51
2022/05/31 06:45:54;;;;;;;6.57;5.97;;;11.50;32.90;;;;;;4970832;28;20256;-49
2022/05/31 06:48:19;;;;;;;6.20;5.60;;;11.60;30.90;;;;;;4965204;28;20272;-54
2022/05/31 06:50:45;;;;;;;9.20;5.80;;;11.60;23.80;;;;;;4970404;28;20946;-51
2022/05/31 06:58:43;;;;;;;6.30;5.70;;;12.00;7.60;;;;;;4967528;28;20431;-53
2022/05/31 07:01:09;;;;;;;6.43;5.87;;;11.90;2.40;;;;;;4966367;28;20416;-51
2022/05/31 07:03:34;;;;;;;6.17;5.63;;;12.00;7.20;;;;;;4970000;28;20193;-50
2022/05/31 07:06:00;;;;;;;6.20;5.63;;;11.90;9.30;;;;;;4969685;28;20193;-51
2022/05/31 07:08:26;;;;;;;7.33;6.63;;;12.00;2.60;;;;;;4970314;28;20718;-49
2022/05/31 07:10:52;;;;;;;6.43;5.60;;;12.10;4.10;;;;;;4966427;28;20204;-53
2022/05/31 07:13:18;;;;;;;6.13;5.63;;;12.10;1.00;;;;;;4969260;28;20958;-49
2022/05/31 07:15:44;;;;;;;6.30;5.80;;;12.10;2.10;;;;;;4968470;28;20475;-51
2022/05/31 07:18:10;;;;;;;5.50;5.10;;;12.30;1.00;;;;;;4970180;28;20460;-52
2022/05/31 07:20:35;;;;;;;6.23;5.63;;;12.50;1.00;;;;;;4969131;28;20185;-53
2022/05/31 07:23:01;;;;;;;5.83;5.00;;;12.70;1.00;;;;;;4970196;28;20675;-51
2022/05/31 07:25:26;;;;;;;5.60;5.10;;;12.90;1.00;;;;;;4968943;28;20189;-49
2022/05/31 07:27:52;;;;;;;5.77;5.20;;;13.10;1.00;;;;;;4969980;28;20260;-52
2022/05/31 07:30:18;;;;;;;5.13;4.73;;;13.30;1.00;;;;;;4965180;28;20283;-52
2022/05/31 07:32:44;;;;;;;5.60;5.10;;;13.50;1.00;;;;;;4956055;28;20229;-53
2022/05/31 07:35:10;;;;;;;5.30;4.90;;;13.70;1.00;;;;;;4969117;28;20468;-52
2022/05/31 07:37:36;;;;;;;5.27;4.87;;;13.90;1.00;;;;;;4965588;28;20428;-53
2022/05/31 07:40:03;;;;;;;5.23;4.87;;;14.10;99.90;;;;;;4971675;28;20427;-53
2022/05/31 07:42:28;;;;;;;5.40;4.90;;;14.20;99.90;;;;;;4985733;28;20243;-53
2022/05/31 07:44:55;;;;;;;5.47;5.07;;;14.40;99.90;;;;;;4971878;28;20432;-52
2022/05/31 07:47:22;;;;;;;5.17;4.77;;;14.60;99.90;;;;;;4968639;28;20244;-55
2022/05/31 07:49:47;;;;;;;5.07;4.77;;;14.80;1.00;;;;;;4970997;28;20968;-51
2022/05/31 07:52:13;;;;;;;5.33;4.83;;;15.00;99.90;;;;;;4970796;28;20440;-52
2022/05/31 07:54:39;;;;;;;5.13;4.73;;;15.20;99.90;;;;;;4971806;28;20227;-53
2022/05/31 07:57:05;;;;;;;6.80;4.90;;;15.30;1.00;;;;;;4968972;28;20324;-52
2022/05/31 07:59:32;;;;;;;5.53;5.13;;;15.50;1.00;;;;;;4960393;28;20499;-52
2022/05/31 08:01:57;;;;;;;4.93;4.63;;;15.60;99.90;;;;;;4969636;28;20442;-48
2022/05/31 08:04:23;;;;;;;5.90;5.30;;;15.80;1.00;;;;;;4974934;28;20998;-52
2022/05/31 08:06:48;;;;;;;5.40;5.10;;;16.00;99.90;;;;;;4973491;28;20945;-52
2022/05/31 08:09:14;;;;;;;5.10;4.70;;;16.20;99.90;;;;;;4974972;28;20680;-52
2022/05/31 08:11:40;;;;;;;5.30;4.80;;;16.30;1.00;;;;;;4974297;28;20224;-49
2022/05/31 08:14:05;;;;;;;5.00;4.70;;;16.50;1.00;;;;;;4975264;28;20260;-48
2022/05/31 08:16:33;;;;;;;5.20;4.80;;;16.60;1.00;;;;;;4989230;28;20194;-53
2022/05/31 08:18:59;;;;;;;4.70;4.40;;;16.80;99.90;;;;;;4964128;28;20255;-54
2022/05/31 08:21:28;;;;;;;5.40;5.00;;;17.00;99.90;;;;;;4975176;28;20426;-57
2022/05/31 08:23:59;;;;;;;4.97;4.67;;;17.10;1.00;;;;;;4966150;28;20242;-51
2022/05/31 08:26:25;;;;;;;5.37;5.07;;;17.20;1.00;;;;;;4968280;28;20890;-50
2022/05/31 08:28:51;;;;;;;5.13;4.80;;;17.40;1.00;;;;;;4973022;28;20427;-49
2022/05/31 08:31:22;;;;;;;5.07;4.63;;;17.50;1.00;;;;;;4975025;28;20926;-51
2022/05/31 08:33:48;;;;;;;4.77;4.47;;;17.80;1.00;;;;;;4967634;28;20511;-51
2022/05/31 08:36:13;;;;;;;4.80;4.50;;;17.90;99.90;;;;;;4972393;28;20431;-49
2022/05/31 08:38:40;;;;;;;4.33;4.03;;;18.00;53.60;;;;;;4972881;28;20421;-52
2022/05/31 08:41:09;;;;;;;4.67;4.37;;;18.10;21.60;;;;;;4970133;28;20192;-51
2022/05/31 08:43:46;;;;;;;4.87;4.53;;;18.30;1.00;;;;;;4972886;28;20428;-48
2022/05/31 08:46:15;;;;;;;4.63;4.33;;;18.40;1.00;;;;;;4969713;28;20522;-54
2022/05/31 08:48:59;;;;;;;4.80;4.50;;;18.60;1.00;;;;;;4972762;28;20757;-48
2022/05/31 08:51:55;;;;;;;4.97;4.57;;;18.60;1.00;;;;;;4972481;28;20447;-48
2022/05/31 08:57:30;;;;;;;4.70;4.40;;;18.90;1.00;;;;;;4971731;28;20522;-49
2022/05/31 09:00:02;;;;;;;5.40;5.10;;;19.10;1.00;;;;;;4971360;28;20428;-53
2022/05/31 09:02:48;;;;;;;4.80;4.60;;;19.40;1.00;;;;;;4972566;28;20855;-52
2022/05/31 09:05:36;;;;;;;5.07;4.80;;;19.80;1.00;;;;;;4972092;28;20443;-51
2022/05/31 09:08:28;;;;;;;6.27;5.10;;;20.20;1.00;;;;;;4962845;28;20425;-50
2022/05/31 09:11:07;;;;;;;5.27;4.97;;;20.80;1.00;;;;;;4968898;28;20499;-54
2022/05/31 09:13:43;;;;;;;4.97;4.67;;;21.10;99.90;;;;;;4964197;28;20473;-52
2022/05/31 09:16:18;;;;;;;4.53;4.27;;;21.30;99.90;;;;;;4967469;28;20437;-51
2022/05/31 09:18:55;;;;;;;4.60;4.30;;;21.70;99.90;;;;;;4966421;28;20414;-50
2022/05/31 09:21:32;;;;;;;5.43;5.13;;;22.40;99.90;;;;;;4971431;28;20423;-51
2022/05/31 09:23:58;;;;;;;4.70;4.50;;;22.90;99.90;;;;;;4972297;28;20416;-47
2022/05/31 09:27:01;;;;;;;5.37;4.90;;;23.80;99.90;;;;;;4965082;28;20432;-53
2022/05/31 09:29:52;;;;;;;5.13;4.70;;;24.30;99.90;;;;;;4971181;28;20424;-52
2022/05/31 09:33:04;;;;;;;4.33;4.03;;;25.10;99.90;;;;;;4964870;28;20445;-47
2022/05/31 09:35:59;;;;;;;4.93;4.67;;;25.70;99.90;;;;;;4963678;28;20435;-55
2022/05/31 09:38:54;;;;;;;4.87;4.67;;;26.10;99.90;;;;;;4958077;28;20857;-55
2022/05/31 09:41:30;;;;;;;4.57;4.23;;;26.70;99.90;;;;;;4968542;28;20472;-54
2022/05/31 09:44:06;;;;;;;4.97;4.77;;;27.00;99.90;;;;;;4963344;28;20462;-54
2022/05/31 09:46:41;;;;;;;4.60;4.40;;;27.40;99.90;;;;;;4969028;28;20487;-52
2022/05/31 09:49:41;;;;;;;4.60;4.30;;;28.00;99.90;;;;;;4966903;28;20440;-54
2022/05/31 09:52:38;;;;;;;5.90;5.40;;;28.10;99.90;;;;;;4965295;28;20502;-52
2022/05/31 09:58:07;;;;;;;4.70;4.50;;;29.20;99.90;;;;;;4961180;28;20516;-57
2022/05/31 10:00:34;;;;;;;4.47;4.27;;;29.50;99.90;;;;;;4962339;28;20786;-57
2022/05/31 10:03:08;;;;;;;4.63;4.43;;;29.60;99.90;;;;;;4963228;28;20538;-57
2022/05/31 10:05:34;;;;;;;4.70;4.50;;;29.90;99.90;;;;;;4964184;28;20436;-55
2022/05/31 10:08:00;;;;;;;4.23;4.03;;;30.30;99.90;;;;;;4985387;28;20452;-56
2022/05/31 10:10:31;;;;;;;4.93;4.73;;;29.80;99.90;;;;;;4964763;28;20448;-53
2022/05/31 10:12:59;;;;;;;4.63;4.43;;;29.90;99.90;;;;;;4960416;28;20212;-57
2022/05/31 10:15:52;;;;;;;4.80;4.50;;;30.40;99.90;;;;;;4965607;28;20489;-57
2022/05/31 10:18:30;;;;;;;4.17;3.97;;;30.80;99.90;;;;;;4960983;28;20421;-56
2022/05/31 10:21:04;;;;;;;4.07;3.87;;;31.40;99.90;;;;;;4970171;28;20431;-58
2022/05/31 10:23:35;;;;;;;4.63;4.43;;;31.70;99.90;;;;;;4970191;28;21259;-57
2022/05/31 10:26:02;;;;;;;4.60;4.37;;;31.80;99.90;;;;;;4969121;28;20531;-58
2022/05/31 10:28:30;;;;;;;5.00;4.80;;;31.80;99.90;;;;;;4971401;28;20436;-54
2022/05/31 10:31:05;;;;;;;5.17;4.97;;;31.00;99.90;;;;;;4960355;28;20455;-57
2022/05/31 10:33:32;;;;;;;4.73;4.43;;;29.80;99.90;;;;;;4970022;28;20497;-58
2022/05/31 10:36:20;;;;;;;5.83;5.53;;;28.70;99.90;;;;;;4968204;28;20440;-56
2022/05/31 10:38:47;;;;;;;5.03;4.73;;;27.50;99.90;;;;;;4967955;28;20421;-56
2022/05/31 10:41:28;;;;;;;5.47;5.17;;;26.60;99.90;;;;;;4963418;28;20439;-56
2022/05/31 10:44:15;;;;;;;5.10;4.83;;;26.00;99.90;;;;;;4968649;28;20422;-51
2022/05/31 10:46:45;;;;;;;5.10;4.90;;;25.80;99.90;;;;;;4970037;28;20790;-52
2022/05/31 10:49:17;;;;;;;5.10;4.70;;;26.20;99.90;;;;;;4969217;28;20424;-58
2022/05/31 10:52:04;;;;;;;5.40;5.10;;;27.10;99.90;;;;;;4966695;28;20456;-55
2022/05/31 10:55:02;;;;;;;5.70;5.37;;;28.10;99.90;;;;;;4968720;28;20474;-55
2022/05/31 10:57:50;;;;;;;4.80;4.50;;;29.40;99.90;;;;;;4970011;28;20478;-57
2022/05/31 11:00:46;;;;;;;5.30;4.83;;;30.20;99.90;;;;;;4967869;28;20451;-58
2022/05/31 11:03:21;;;;;;;4.40;4.10;;;31.10;99.90;;;;;;4964603;28;20432;-55
2022/05/31 11:06:05;;;;;;;4.93;4.70;;;31.50;99.90;;;;;;4968717;28;20436;-57
2022/05/31 11:11:55;;;;;;;5.07;4.77;;;32.30;99.90;;;;;;4953394;28;20595;-56
2022/05/31 11:14:44;;;;;;;5.10;4.90;;;32.60;99.90;;;;;;4958526;28;20497;-54
2022/05/31 11:17:34;;;;;;;5.03;4.73;;;32.60;99.90;;;;;;4968379;28;20483;-58
2022/05/31 11:20:27;;;;;;;5.10;4.80;;;32.70;99.90;;;;;;4969696;28;20460;-58
2022/05/31 11:23:26;;;;;;;5.30;5.10;;;33.20;99.90;;;;;;4966684;28;20436;-57
2022/05/31 11:26:35;;;;;;;5.00;4.80;;;34.00;99.90;;;;;;4959973;28;20522;-59
2022/05/31 11:29:21;;;;;;;5.33;5.13;;;34.60;99.90;;;;;;4969026;28;20494;-58
2022/05/31 11:32:03;;;;;;;5.30;5.10;;;34.30;99.90;;;;;;4967002;28;20559;-58
2022/05/31 11:34:51;;;;;;;5.07;4.87;;;33.90;99.90;;;;;;4976261;28;20499;-56
2022/05/31 11:37:41;;;;;;;5.33;5.13;;;33.70;99.90;;;;;;4955616;28;20750;-54
2022/05/31 11:40:13;;;;;;;5.27;4.97;;;33.90;99.90;;;;;;4973466;28;20420;-56
2022/05/31 11:43:00;;;;;;;5.07;4.77;;;34.00;99.90;;;;;;4965601;28;20440;-54
2022/05/31 11:45:54;;;;;;;4.90;4.70;;;34.30;99.90;;;;;;4971356;28;20412;-57
2022/05/31 11:48:41;;;;;;;4.87;4.67;;;34.60;99.90;;;;;;4971928;28;20432;-56
2022/05/31 11:51:37;;;;;;;4.60;4.40;;;34.50;99.90;;;;;;4969645;28;20477;-57
2022/05/31 11:54:41;;;;;;;5.33;5.10;;;34.70;99.90;;;;;;4961346;28;20476;-57
2022/05/31 11:57:37;;;;;;;4.70;4.50;;;34.70;99.90;;;;;;4973055;28;20471;-56
2022/05/31 12:00:08;;;;;;;5.00;4.80;;;35.20;99.90;;;;;;4972409;28;20439;-54
2022/05/31 12:02:45;;;;;;;4.93;4.73;;;35.20;99.90;;;;;;4972379;28;20989;-57
2022/05/31 12:05:16;;;;;;;5.50;5.23;;;35.20;99.90;;;;;;4971155;28;20922;-57
2022/05/31 12:07:56;;;;;;;4.73;4.53;;;34.10;99.90;;;;;;4972810;28;20466;-58
2022/05/31 12:10:28;;;;;;;5.40;5.10;;;32.90;99.90;;;;;;4962572;28;20446;-55
2022/05/31 12:12:57;;;;;;;5.83;5.53;;;31.70;99.90;;;;;;4973948;28;20519;-57
2022/05/31 12:15:28;;;;;;;5.40;5.10;;;31.40;99.90;;;;;;4962679;28;20456;-56
2022/05/31 12:18:27;;;;;;;6.00;5.70;;;31.10;99.90;;;;;;4971951;28;20428;-53
2022/05/31 12:21:11;;;;;;;5.67;5.43;;;30.40;99.90;;;;;;4961401;28;20503;-56
2022/05/31 12:23:43;;;;;;;5.40;5.20;;;29.60;99.90;;;;;;4973817;28;20452;-57
2022/05/31 12:26:37;;;;;;;5.80;5.50;;;28.90;99.90;;;;;;4960982;28;20825;-53
2022/05/31 12:29:05;;;;;;;6.33;6.03;;;27.60;99.90;;;;;;4972549;28;20424;-55
2022/05/31 12:31:37;;;;;;;5.60;5.30;;;26.30;99.90;;;;;;4974277;28;20453;-55
2022/05/31 12:34:21;;;;;;;5.43;5.13;;;26.10;99.90;;;;;;4972420;28;20985;-55
2022/05/31 12:36:58;;;;;;;6.33;5.27;;;27.10;99.90;;;;;;4976044;28;20429;-57
2022/05/31 12:39:30;;;;;;;5.87;5.57;;;28.10;99.90;;;;;;4953144;28;20429;-52
2022/05/31 12:41:57;;;;;;;5.23;4.90;;;28.50;99.90;;;;;;4953633;28;20433;-55
2022/05/31 12:44:32;;;;;;;5.20;5.00;;;28.10;99.90;;;;;;4967109;28;20556;-56
2022/05/31 12:47:25;;;;;;;5.40;5.10;;;28.30;99.90;;;;;;4966943;28;20439;-57
2022/05/31 12:50:05;;;;;;;4.90;4.70;;;29.20;99.90;;;;;;4970079;28;20443;-56
2022/05/31 12:55:04;;;;;;;4.90;4.60;;;30.20;99.90;;;;;;4970824;28;20967;-56
2022/05/31 13:00:33;;;;;;;5.00;4.70;;;30.90;99.90;;;;;;4967799;28;20448;-56
2022/05/31 13:03:00;;;;;;;5.17;4.97;;;30.60;99.90;;;;;;4972172;28;20420;-58
2022/05/31 13:05:57;;;;;;;5.50;5.10;;;30.60;99.90;;;;;;4969629;28;20527;-58
2022/05/31 13:08:43;;;;;;;5.17;4.97;;;29.80;99.90;;;;;;4965985;28;20451;-56
2022/05/31 13:19:34;;;;;;;5.53;5.23;;;28.20;99.90;;;;;;4967507;28;20487;-52
2022/05/31 13:22:03;;;;;;;5.30;5.00;;;27.60;99.90;;;;;;4968645;28;20491;-56
2022/05/31 13:24:30;;;;;;;5.70;5.40;;;27.70;99.90;;;;;;4967057;28;20424;-56
2022/05/31 13:26:58;;;;;;;5.60;5.30;;;27.70;99.90;;;;;;4971504;28;20504;-57
2022/05/31 13:29:23;;;;;;;5.70;5.30;;;27.40;99.90;;;;;;4965291;28;20440;-57
2022/05/31 13:31:52;;;;;;;5.80;5.50;;;27.20;99.90;;;;;;4969873;28;20486;-56
2022/05/31 13:34:36;;;;;;;5.97;5.60;;;27.00;99.90;;;;;;4975414;28;20212;-59
2022/05/31 13:37:13;;;;;;;6.30;6.00;;;26.70;99.90;;;;;;4970776;28;20458;-55
2022/05/31 13:39:43;;;;;;;5.77;5.47;;;26.50;99.90;;;;;;4961575;28;20475;-59
2022/05/31 13:42:20;;;;;;;5.50;5.20;;;26.40;99.90;;;;;;4971287;28;20459;-56
2022/05/31 13:44:46;;;;;;;5.50;5.27;;;26.60;99.90;;;;;;4961053;28;20451;-56